Time;durP1;ratioP1;P1;durP2;ratioP2;P2;SDS_P1;SDS_P2;PMS_P1;PMS_P2;Temp;Humidity;BMP_temperature;BMP_pressure;BME280_temperature;BME280_humidity;BME280_pressure;Samples;Min_cycle;Max_cycle;Signal;HPM_P1;HPM_P2
2023/02/22 00:02:09;;;;;;;0.00;0.00;;;;;;;8.33;100.00;100475.69;4953906;28;20214;-72
2023/02/22 00:04:34;;;;;;;0.00;0.00;;;;;;;8.31;100.00;100469.72;4953475;28;20204;-72
2023/02/22 00:07:00;;;;;;;0.00;0.00;;;;;;;8.27;100.00;100471.44;4952727;29;20191;-72
2023/02/22 00:09:26;;;;;;;0.63;0.63;;;;;;;8.22;100.00;100474.22;4954033;28;20187;-72
2023/02/22 00:11:51;;;;;;;0.23;0.23;;;;;;;8.22;100.00;100470.69;4953660;28;20233;-72
2023/02/22 00:14:19;;;;;;;0.10;0.10;;;;;;;8.21;100.00;100466.34;4953596;28;20189;-71
2023/02/22 00:16:44;;;;;;;0.87;0.87;;;;;;;8.21;100.00;100463.63;4953384;29;20274;-71
2023/02/22 00:19:09;;;;;;;0.00;0.00;;;;;;;8.21;100.00;100464.44;4953716;28;20262;-72
2023/02/22 00:21:36;;;;;;;0.00;0.00;;;;;;;8.25;100.00;100472.84;4953467;28;20218;-70
2023/02/22 00:24:15;;;;;;;0.00;0.00;;;;;;;8.29;100.00;100474.66;4953463;28;20202;-71
2023/02/22 00:26:41;;;;;;;0.00;0.00;;;;;;;8.31;100.00;100467.00;4952074;28;20185;-71
2023/02/22 00:29:07;;;;;;;0.30;0.30;;;;;;;8.34;100.00;100465.63;4953217;29;20183;-71
2023/02/22 00:31:37;;;;;;;0.00;0.00;;;;;;;8.31;100.00;100458.03;4952176;29;20588;-72
2023/02/22 00:34:03;;;;;;;0.00;0.00;;;;;;;8.28;100.00;100464.06;4952044;29;20181;-76
2023/02/22 00:36:28;;;;;;;0.00;0.00;;;;;;;8.24;100.00;100461.13;4953073;28;20559;-76
2023/02/22 00:38:54;;;;;;;0.00;0.00;;;;;;;8.30;100.00;100454.50;4953643;28;20528;-76
2023/02/22 00:41:19;;;;;;;0.00;0.00;;;;;;;8.29;100.00;100450.16;4953979;28;20252;-76
2023/02/22 00:43:47;;;;;;;0.00;0.00;;;;;;;8.32;100.00;100446.03;4953474;28;20662;-76
2023/02/22 00:46:13;;;;;;;0.00;0.00;;;;;;;8.28;100.00;100440.38;4952983;28;20189;-76
2023/02/22 00:48:38;;;;;;;0.00;0.00;;;;;;;8.32;100.00;100440.59;4953392;28;20182;-75
2023/02/22 00:51:04;;;;;;;0.00;0.00;;;;;;;8.32;100.00;100437.88;4953116;28;20275;-76
2023/02/22 00:53:29;;;;;;;0.00;0.00;;;;;;;8.34;100.00;100436.50;4952981;28;20175;-76
2023/02/22 00:55:55;;;;;;;0.00;0.00;;;;;;;8.29;100.00;100433.84;4951687;29;20183;-76
2023/02/22 00:58:21;;;;;;;0.00;0.00;;;;;;;8.25;100.00;100443.72;4953362;28;20201;-76
2023/02/22 01:00:47;;;;;;;8.63;1.00;;;;;;;8.23;100.00;100429.56;4952909;28;20210;-76
2023/02/22 01:03:14;;;;;;;1.13;1.13;;;;;;;8.21;100.00;100436.41;4952785;28;20635;-75
2023/02/22 01:05:39;;;;;;;0.77;0.37;;;;;;;8.17;100.00;100433.47;4952811;28;20193;-76
2023/02/22 01:08:06;;;;;;;1.07;1.07;;;;;;;8.17;100.00;100435.38;4952771;28;20183;-76
2023/02/22 01:10:32;;;;;;;4.53;2.63;;;;;;;8.13;100.00;100427.00;4952568;29;20185;-75
2023/02/22 01:12:59;;;;;;;1.93;1.90;;;;;;;8.12;100.00;100428.13;4952746;28;20187;-75
2023/02/22 01:15:29;;;;;;;0.00;0.00;;;;;;;8.11;100.00;100426.50;4952459;28;20183;-75
2023/02/22 01:17:57;;;;;;;10.20;0.50;;;;;;;8.13;100.00;100426.22;4952701;28;20186;-76
2023/02/22 01:20:24;;;;;;;0.70;0.70;;;;;;;8.11;100.00;100425.69;4952591;28;20689;-77
2023/02/22 01:22:52;;;;;;;0.47;0.47;;;;;;;8.05;100.00;100414.06;4952514;28;20175;-75
2023/02/22 01:25:20;;;;;;;5.10;1.40;;;;;;;8.07;100.00;100412.66;4952205;28;20178;-76
2023/02/22 01:27:46;;;;;;;1.73;1.57;;;;;;;8.07;100.00;100414.56;4952579;28;20179;-74
2023/02/22 01:30:13;;;;;;;6.87;3.47;;;;;;;8.03;100.00;100405.41;4952512;28;20515;-75
2023/02/22 01:32:40;;;;;;;1.00;1.00;;;;;;;8.01;100.00;100411.13;4951202;29;20654;-76
2023/02/22 01:35:12;;;;;;;0.53;0.53;;;;;;;7.97;100.00;100409.31;4952320;28;20329;-75
2023/02/22 01:37:38;;;;;;;1.77;1.67;;;;;;;7.93;100.00;100411.78;4952393;29;20171;-76
2023/02/22 01:40:07;;;;;;;1.67;1.60;;;;;;;7.91;100.00;100399.59;4952222;28;20549;-76
2023/02/22 01:42:33;;;;;;;0.00;0.00;;;;;;;7.85;100.00;100396.16;4951020;28;20666;-75
2023/02/22 01:45:29;;;;;;;0.00;0.00;;;;;;;7.81;100.00;100399.72;4952211;28;20430;-75
2023/02/22 01:48:29;;;;;;;0.67;0.67;;;;;;;7.81;100.00;100386.13;4952311;28;20217;-76
2023/02/22 01:51:02;;;;;;;2.00;1.90;;;;;;;7.79;100.00;100391.06;4950490;28;20662;-75
2023/02/22 01:53:36;;;;;;;0.33;0.33;;;;;;;7.74;100.00;100391.94;4955749;28;20170;-75
2023/02/22 01:56:02;;;;;;;0.00;0.00;;;;;;;7.67;100.00;100391.53;4956038;29;20185;-76
2023/02/22 01:58:31;;;;;;;0.00;0.00;;;;;;;7.63;100.00;100385.84;4956135;28;20233;-76
2023/02/22 02:00:57;;;;;;;0.00;0.00;;;;;;;7.60;100.00;100391.06;4956109;28;20280;-76
2023/02/22 02:03:27;;;;;;;0.00;0.00;;;;;;;7.54;100.00;100390.31;4956042;28;20178;-76
2023/02/22 02:05:55;;;;;;;0.83;0.83;;;;;;;7.45;100.00;100386.63;4955878;28;20179;-76
2023/02/22 02:08:27;;;;;;;0.00;0.00;;;;;;;7.31;100.00;100388.44;4955957;28;20749;-75
2023/02/22 02:10:54;;;;;;;0.20;0.20;;;;;;;7.28;100.00;100392.56;4954717;28;20650;-75
2023/02/22 02:13:19;;;;;;;1.33;0.43;;;;;;;7.15;100.00;100385.91;4955849;28;20390;-76
2023/02/22 02:15:44;;;;;;;1.00;0.97;;;;;;;7.03;100.00;100385.50;4955626;28;20187;-76
2023/02/22 02:18:12;;;;;;;0.00;0.00;;;;;;;6.92;100.00;100384.00;4956138;28;20230;-75
2023/02/22 02:20:42;;;;;;;0.00;0.00;;;;;;;6.82;100.00;100375.97;4955837;28;20202;-75
2023/02/22 02:23:26;;;;;;;0.87;0.87;;;;;;;6.71;100.00;100372.56;4956125;28;20178;-75
2023/02/22 02:26:26;;;;;;;0.53;0.47;;;;;;;6.60;100.00;100367.50;4955439;28;20210;-76
2023/02/22 02:29:08;;;;;;;1.47;1.43;;;;;;;6.47;100.00;100371.69;4955647;28;20175;-76
2023/02/22 02:31:53;;;;;;;2.43;0.37;;;;;;;6.44;100.00;100366.84;4955686;28;20179;-76
2023/02/22 02:34:49;;;;;;;0.20;0.20;;;;;;;6.52;100.00;100369.75;4955389;28;20206;-76
2023/02/22 02:37:26;;;;;;;0.00;0.00;;;;;;;6.48;100.00;100360.56;4955470;28;20213;-75
2023/02/22 02:39:55;;;;;;;0.00;0.00;;;;;;;6.49;100.00;100362.16;4955400;28;20297;-75
2023/02/22 02:42:27;;;;;;;0.10;0.10;;;;;;;6.39;100.00;100347.91;4955275;28;20647;-75
2023/02/22 02:45:01;;;;;;;0.00;0.00;;;;;;;6.34;100.00;100346.03;4955265;28;20202;-75
2023/02/22 02:47:29;;;;;;;0.00;0.00;;;;;;;6.23;100.00;100348.06;4955416;28;20221;-75
2023/02/22 02:50:01;;;;;;;0.27;0.10;;;;;;;6.22;100.00;100351.84;4955287;28;20189;-76
2023/02/22 02:52:30;;;;;;;0.00;0.00;;;;;;;6.12;100.00;100353.84;4955166;28;20225;-76
2023/02/22 02:54:56;;;;;;;0.57;0.57;;;;;;;6.13;100.00;100344.59;4954819;28;20191;-75
2023/02/22 02:57:23;;;;;;;0.63;0.63;;;;;;;6.17;100.00;100351.88;4955299;28;20179;-76
2023/02/22 02:59:50;;;;;;;1.27;0.77;;;;;;;6.21;100.00;100343.97;4955047;28;20170;-75
2023/02/22 03:02:32;;;;;;;0.00;0.00;;;;;;;6.36;100.00;100345.75;4954964;28;20544;-76
2023/02/22 03:05:10;;;;;;;0.00;0.00;;;;;;;6.38;100.00;100341.69;4954773;28;20229;-75
2023/02/22 03:07:49;;;;;;;0.00;0.00;;;;;;;6.47;100.00;100337.22;4954966;28;20306;-76
2023/02/22 03:10:42;;;;;;;4.57;0.67;;;;;;;6.52;100.00;100339.09;4954910;28;20190;-76
2023/02/22 03:13:40;;;;;;;0.00;0.00;;;;;;;6.44;100.00;100332.38;4954821;28;20191;-75
2023/02/22 03:16:05;;;;;;;0.43;0.43;;;;;;;6.52;100.00;100339.09;4954579;28;20189;-76
2023/02/22 03:18:52;;;;;;;0.20;0.20;;;;;;;6.55;100.00;100328.47;4954783;28;20175;-77
2023/02/22 03:21:42;;;;;;;0.87;0.87;;;;;;;6.60;100.00;100337.66;4954497;28;20210;-75
2023/02/22 03:24:19;;;;;;;0.00;0.00;;;;;;;6.68;100.00;100334.31;4954465;28;20182;-76
2023/02/22 03:27:08;;;;;;;0.00;0.00;;;;;;;6.75;100.00;100332.06;4954630;28;20166;-75
2023/02/22 03:29:38;;;;;;;0.00;0.00;;;;;;;6.77;100.00;100324.44;4954639;28;20181;-76
2023/02/22 03:32:07;;;;;;;0.00;0.00;;;;;;;6.81;100.00;100322.78;4954590;28;20190;-76
2023/02/22 03:34:49;;;;;;;0.00;0.00;;;;;;;6.95;100.00;100322.88;4954025;28;20194;-75
2023/02/22 03:37:19;;;;;;;0.00;0.00;;;;;;;7.03;100.00;100320.31;4954624;28;20315;-76
2023/02/22 03:39:46;;;;;;;0.00;0.00;;;;;;;7.09;100.00;100313.75;4954700;28;20253;-76
2023/02/22 03:42:17;;;;;;;0.00;0.00;;;;;;;7.15;100.00;100309.84;4954282;28;20888;-76
2023/02/22 03:44:46;;;;;;;0.00;0.00;;;;;;;7.22;100.00;100316.81;4953098;29;20571;-76
2023/02/22 03:47:17;;;;;;;0.00;0.00;;;;;;;7.21;100.00;100312.47;4954187;28;20182;-75
2023/02/22 03:49:56;;;;;;;0.00;0.00;;;;;;;7.19;100.00;100310.06;4954317;28;20179;-76
2023/02/22 03:52:22;;;;;;;0.00;0.00;;;;;;;7.22;100.00;100309.47;4953042;28;20225;-72
2023/02/22 03:54:52;;;;;;;0.00;0.00;;;;;;;7.29;100.00;100309.13;4953914;28;20560;-71
2023/02/22 03:57:44;;;;;;;0.00;0.00;;;;;;;7.34;100.00;100303.59;4954514;28;20541;-71
2023/02/22 04:00:16;;;;;;;0.33;0.23;;;;;;;7.39;100.00;100300.84;4954002;28;20212;-71
2023/02/22 04:02:41;;;;;;;0.00;0.00;;;;;;;7.51;100.00;100298.47;4953953;28;20647;-71
2023/02/22 04:05:08;;;;;;;0.00;0.00;;;;;;;7.51;100.00;100295.75;4953691;28;20273;-71
2023/02/22 04:07:33;;;;;;;0.00;0.00;;;;;;;7.55;100.00;100291.34;4953863;28;20277;-71
2023/02/22 04:10:01;;;;;;;0.00;0.00;;;;;;;7.63;100.00;100301.53;4953784;28;20269;-71
2023/02/22 04:12:26;;;;;;;0.70;0.70;;;;;;;7.67;100.00;100297.16;4953689;28;20630;-71
2023/02/22 04:14:51;;;;;;;0.00;0.00;;;;;;;7.61;100.00;100292.06;4952924;28;20210;-72
2023/02/22 04:17:17;;;;;;;0.00;0.00;;;;;;;7.63;100.00;100296.09;4953712;28;20304;-70
2023/02/22 04:19:44;;;;;;;0.00;0.00;;;;;;;7.64;100.00;100297.72;4953578;28;20183;-71
2023/02/22 04:22:09;;;;;;;0.00;0.00;;;;;;;7.54;100.00;100295.19;4953499;28;20257;-71
2023/02/22 04:24:35;;;;;;;0.00;0.00;;;;;;;7.63;100.00;100298.03;4953217;28;20175;-72
2023/02/22 04:27:00;;;;;;;0.00;0.00;;;;;;;7.49;100.00;100291.72;4953473;28;20630;-71
2023/02/22 04:29:25;;;;;;;0.00;0.00;;;;;;;7.51;100.00;100298.47;4953670;28;20227;-71
2023/02/22 04:31:51;;;;;;;0.00;0.00;;;;;;;7.42;100.00;100290.19;4953349;28;20243;-72
2023/02/22 04:34:16;;;;;;;0.00;0.00;;;;;;;7.55;100.00;100293.28;4953232;29;20182;-72
2023/02/22 04:36:43;;;;;;;0.00;0.00;;;;;;;7.56;100.00;100295.69;4953227;28;20669;-71
2023/02/22 04:39:08;;;;;;;0.00;0.00;;;;;;;7.46;100.00;100288.47;4953179;28;20273;-72
2023/02/22 04:41:34;;;;;;;0.00;0.00;;;;;;;7.31;100.00;100288.69;4953605;28;20666;-71
2023/02/22 04:43:59;;;;;;;0.10;0.10;;;;;;;7.36;100.00;100288.63;4953117;28;20567;-71
2023/02/22 04:46:24;;;;;;;0.00;0.00;;;;;;;7.31;100.00;100290.63;4953139;28;20715;-71
2023/02/22 04:48:50;;;;;;;0.00;0.00;;;;;;;7.40;100.00;100286.94;4953072;28;20174;-71
2023/02/22 04:51:15;;;;;;;0.00;0.00;;;;;;;7.47;100.00;100289.28;4953056;28;20175;-70
2023/02/22 04:53:40;;;;;;;0.10;0.10;;;;;;;7.50;100.00;100288.69;4952948;28;20257;-71
2023/02/22 04:56:06;;;;;;;0.00;0.00;;;;;;;7.54;100.00;100286.22;4952762;28;20210;-72
2023/02/22 04:58:31;;;;;;;0.10;0.10;;;;;;;7.45;100.00;100288.78;4953182;28;20182;-71
2023/02/22 05:00:57;;;;;;;2.57;0.30;;;;;;;7.28;100.00;100294.72;4953228;28;20293;-71
2023/02/22 05:03:22;;;;;;;0.00;0.00;;;;;;;7.07;100.00;100283.31;4951536;29;20190;-72
2023/02/22 05:05:47;;;;;;;0.00;0.00;;;;;;;7.10;100.00;100282.75;4952649;28;20178;-70
2023/02/22 05:08:12;;;;;;;0.97;0.70;;;;;;;7.11;100.00;100292.50;4952804;28;20579;-71
2023/02/22 05:10:38;;;;;;;2.83;2.73;;;;;;;7.05;100.00;100279.28;4952772;28;20506;-71
2023/02/22 05:13:04;;;;;;;1.03;1.03;;;;;;;7.12;100.00;100285.97;4952871;28;20242;-71
2023/02/22 05:15:30;;;;;;;0.00;0.00;;;;;;;7.13;100.00;100292.22;4952498;28;20637;-70
2023/02/22 05:17:55;;;;;;;0.00;0.00;;;;;;;7.07;100.00;100290.66;4952634;28;20213;-72
2023/02/22 05:20:29;;;;;;;0.00;0.00;;;;;;;6.98;100.00;100290.50;4952589;28;20248;-71
2023/02/22 05:23:00;;;;;;;0.00;0.00;;;;;;;6.95;100.00;100282.16;4952537;28;20213;-72
2023/02/22 05:25:26;;;;;;;0.00;0.00;;;;;;;6.96;100.00;100281.84;4952805;28;20523;-72
2023/02/22 05:27:59;;;;;;;0.00;0.00;;;;;;;6.94;100.00;100275.06;4951705;28;20261;-71
2023/02/22 05:30:27;;;;;;;1.90;1.73;;;;;;;7.05;100.00;100279.28;4952549;28;20573;-71
2023/02/22 05:32:53;;;;;;;0.00;0.00;;;;;;;7.10;100.00;100277.31;4952382;28;20178;-71
2023/02/22 05:35:20;;;;;;;0.00;0.00;;;;;;;7.13;100.00;100275.91;4952199;28;20201;-71
2023/02/22 05:37:45;;;;;;;0.00;0.00;;;;;;;7.15;100.00;100271.81;4952402;28;20190;-71
2023/02/22 05:40:13;;;;;;;0.00;0.00;;;;;;;7.27;100.00;100270.56;4952348;28;20206;-71
2023/02/22 05:42:39;;;;;;;0.00;0.00;;;;;;;7.22;100.00;100265.19;4951217;29;20542;-71
2023/02/22 05:45:05;;;;;;;0.00;0.00;;;;;;;7.19;100.00;100271.22;4952042;28;20235;-71
2023/02/22 05:47:30;;;;;;;0.00;0.00;;;;;;;7.14;100.00;100259.31;4952308;28;20198;-74
2023/02/22 05:49:55;;;;;;;0.00;0.00;;;;;;;7.15;100.00;100265.56;4952231;28;20685;-71
2023/02/22 05:52:20;;;;;;;0.00;0.00;;;;;;;7.18;100.00;100272.31;4952271;28;20650;-71
2023/02/22 05:54:46;;;;;;;0.00;0.00;;;;;;;7.13;100.00;100271.28;4952209;28;20294;-71
2023/02/22 05:57:11;;;;;;;0.00;0.00;;;;;;;7.04;100.00;100267.59;4952245;28;20183;-71
2023/02/22 05:59:36;;;;;;;0.00;0.00;;;;;;;6.99;100.00;100262.25;4952735;28;20511;-72
2023/02/22 06:02:02;;;;;;;0.00;0.00;;;;;;;6.96;100.00;100264.75;4952130;28;20214;-70
2023/02/22 06:04:27;;;;;;;0.00;0.00;;;;;;;6.96;100.00;100257.41;4951900;28;20518;-71
2023/02/22 06:06:52;;;;;;;0.00;0.00;;;;;;;6.95;100.00;100255.00;4952270;28;20253;-72
2023/02/22 06:09:18;;;;;;;1.20;1.20;;;;;;;7.05;100.00;100260.25;4952153;28;20179;-71
2023/02/22 06:11:43;;;;;;;0.00;0.00;;;;;;;7.19;100.00;100254.91;4952040;28;20262;-73
2023/02/22 06:14:08;;;;;;;0.00;0.00;;;;;;;7.05;100.00;100258.34;4952126;28;20235;-71
2023/02/22 06:16:33;;;;;;;0.00;0.00;;;;;;;6.97;100.00;100258.22;4951929;28;20278;-72
2023/02/22 06:18:59;;;;;;;0.00;0.00;;;;;;;6.95;100.00;100255.00;4951949;28;20179;-73
2023/02/22 06:21:25;;;;;;;0.20;0.20;;;;;;;7.13;100.00;100252.28;4951895;28;20219;-71
2023/02/22 06:23:51;;;;;;;0.37;0.37;;;;;;;7.22;100.00;100249.69;4952116;28;20269;-73
2023/02/22 06:26:17;;;;;;;0.00;0.00;;;;;;;7.26;100.00;100248.03;4951822;28;20266;-76
2023/02/22 06:28:43;;;;;;;0.00;0.00;;;;;;;7.30;100.00;100253.69;4951928;28;20182;-77
2023/02/22 06:31:08;;;;;;;0.10;0.10;;;;;;;7.27;100.00;100251.56;4951982;28;20175;-74
2023/02/22 06:33:34;;;;;;;0.40;0.40;;;;;;;7.14;100.00;100253.91;4951754;28;20710;-76
2023/02/22 06:35:59;;;;;;;0.00;0.00;;;;;;;7.08;100.00;100257.75;4951549;28;20186;-77
2023/02/22 06:38:26;;;;;;;0.00;0.00;;;;;;;7.05;100.00;100255.63;4953546;28;20647;-77
2023/02/22 06:40:54;;;;;;;0.00;0.00;;;;;;;7.00;100.00;100260.34;4955329;28;20194;-77
2023/02/22 06:43:20;;;;;;;0.37;0.37;;;;;;;6.84;100.00;100249.69;4955405;28;20185;-75
2023/02/22 06:45:45;;;;;;;0.23;0.23;;;;;;;6.77;100.00;100259.25;4955050;28;20178;-77
2023/02/22 06:48:11;;;;;;;0.00;0.00;;;;;;;6.75;100.00;100261.47;4955117;28;20210;-76
2023/02/22 06:50:36;;;;;;;0.00;0.00;;;;;;;6.74;100.00;100255.22;4955079;28;20182;-76
2023/02/22 06:53:02;;;;;;;0.00;0.00;;;;;;;6.64;100.00;100259.97;4955439;28;20183;-73
2023/02/22 06:55:30;;;;;;;0.00;0.00;;;;;;;6.57;100.00;100255.72;4954927;28;20182;-77
2023/02/22 06:57:55;;;;;;;0.00;0.00;;;;;;;6.53;100.00;100259.28;4953848;28;20221;-76
2023/02/22 07:00:23;;;;;;;0.00;0.00;;;;;;;6.46;100.00;100256.09;4955092;28;20226;-75
2023/02/22 07:02:50;;;;;;;0.00;0.00;;;;;;;6.50;100.00;100255.22;4954946;28;20674;-75
2023/02/22 07:05:18;;;;;;;0.00;0.00;;;;;;;6.69;100.00;100259.94;4954777;28;20663;-76
2023/02/22 07:07:44;;;;;;;0.00;0.00;;;;;;;6.67;100.00;100251.25;4954993;28;20175;-76
2023/02/22 07:10:24;;;;;;;0.00;0.00;;;;;;;6.63;100.00;100256.44;4955041;28;20174;-75
2023/02/22 07:12:51;;;;;;;0.00;0.00;;;;;;;6.65;100.00;100251.53;4954871;28;20198;-75
2023/02/22 07:15:17;;;;;;;0.00;0.00;;;;;;;6.52;100.00;100255.78;4953407;29;20178;-76
2023/02/22 07:17:42;;;;;;;0.10;0.10;;;;;;;6.60;100.00;100254.31;4955001;28;20234;-76
2023/02/22 07:20:10;;;;;;;0.63;0.63;;;;;;;6.61;100.00;100257.84;4954659;28;20642;-76
2023/02/22 07:22:36;;;;;;;0.00;0.00;;;;;;;6.56;100.00;100256.81;4954633;28;20174;-74
2023/02/22 07:25:01;;;;;;;0.00;0.00;;;;;;;6.55;100.00;100246.25;4954576;28;20175;-76
2023/02/22 07:27:26;;;;;;;0.00;0.00;;;;;;;6.56;100.00;100245.94;4954626;28;20178;-76
2023/02/22 07:29:52;;;;;;;2.83;2.63;;;;;;;6.53;100.00;100254.69;4954871;28;20174;-75
2023/02/22 07:32:17;;;;;;;0.00;0.00;;;;;;;6.54;100.00;100247.34;4954563;28;20189;-76
2023/02/22 07:34:42;;;;;;;0.83;0.83;;;;;;;6.48;100.00;100249.28;4954231;28;20195;-76
2023/02/22 07:37:08;;;;;;;0.00;0.00;;;;;;;6.54;100.00;100247.34;4954498;28;20676;-77
2023/02/22 07:39:33;;;;;;;0.00;0.00;;;;;;;6.49;100.00;100253.63;4954481;28;20174;-77
2023/02/22 07:41:59;;;;;;;2.40;0.97;;;;;;;6.48;100.00;100249.28;4954309;28;20209;-74
2023/02/22 07:44:24;;;;;;;0.00;0.00;;;;;;;6.60;100.00;100243.47;4954098;28;20182;-76
2023/02/22 07:46:49;;;;;;;1.13;1.13;;;;;;;6.71;100.00;100241.44;4954085;28;20171;-76
2023/02/22 07:49:15;;;;;;;0.00;0.00;;;;;;;6.64;100.00;100243.69;4953431;28;20666;-75
2023/02/22 07:51:41;;;;;;;0.00;0.00;;;;;;;6.56;100.00;100240.53;4954133;28;20182;-76
2023/02/22 07:54:06;;;;;;;0.00;0.00;;;;;;;6.60;100.00;100248.09;4954172;28;20304;-77
2023/02/22 07:56:31;;;;;;;0.00;0.00;;;;;;;6.71;100.00;100247.66;4954436;28;20513;-75
2023/02/22 07:58:57;;;;;;;0.00;0.00;;;;;;;6.70;100.00;100245.25;4953974;28;20579;-75
2023/02/22 08:01:23;;;;;;;0.00;0.00;;;;;;;6.77;100.00;100243.78;4953898;28;20292;-75
2023/02/22 08:03:49;;;;;;;0.00;0.00;;;;;;;6.86;100.00;100238.53;4953915;28;20186;-76
2023/02/22 08:06:14;;;;;;;0.17;0.17;;;;;;;6.94;100.00;100246.00;4953774;28;20174;-75
2023/02/22 08:08:39;;;;;;;0.00;0.00;;;;;;;7.08;100.00;100236.03;4953895;28;20178;-75
2023/02/22 08:11:05;;;;;;;0.80;0.60;;;;;;;7.24;100.00;100236.66;4954237;28;20238;-76
2023/02/22 08:13:30;;;;;;;0.00;0.00;;;;;;;7.42;100.00;100232.31;4953666;28;20198;-74
2023/02/22 08:15:56;;;;;;;0.43;0.43;;;;;;;7.55;100.00;100238.91;4953519;28;20254;-76
2023/02/22 08:18:23;;;;;;;0.00;0.00;;;;;;;7.65;100.00;100238.72;4953893;28;20214;-75
2023/02/22 08:20:50;;;;;;;0.00;0.00;;;;;;;7.79;100.00;100238.75;4952360;29;20229;-77
2023/02/22 08:23:18;;;;;;;0.00;0.00;;;;;;;8.03;100.00;100239.44;4953620;28;20257;-74
2023/02/22 08:25:44;;;;;;;5.47;4.83;;;;;;;8.24;100.00;100234.41;4953286;28;20555;-76
2023/02/22 08:28:15;;;;;;;0.00;0.00;;;;;;;8.42;100.00;100236.31;4953434;28;20183;-74
2023/02/22 08:30:42;;;;;;;1.20;1.20;;;;;;;8.57;100.00;100238.72;4953350;28;20249;-76
2023/02/22 08:33:09;;;;;;;1.43;1.43;;;;;;;8.79;100.00;100240.72;4953632;28;20206;-76
2023/02/22 08:35:35;;;;;;;7.17;4.37;;;;;;;8.94;100.00;100245.03;4953066;28;20206;-75
2023/02/22 08:38:04;;;;;;;2.60;1.33;;;;;;;9.12;100.00;100240.56;4953243;28;20206;-72
2023/02/22 08:40:32;;;;;;;0.93;0.93;;;;;;;9.19;100.00;100244.47;4953157;28;20253;-75
2023/02/22 08:42:58;;;;;;;17.23;2.33;;;;;;;9.30;100.00;100246.97;4953214;28;20198;-75
2023/02/22 08:45:24;;;;;;;0.60;0.60;;;;;;;9.38;100.00;100252.50;4952917;29;20639;-76
2023/02/22 08:47:49;;;;;;;2.27;2.13;;;;;;;9.49;100.00;100251.16;4953198;28;20183;-76
2023/02/22 08:50:32;;;;;;;2.70;2.50;;;;;;;9.61;100.00;100252.53;4953111;28;20174;-76
2023/02/22 08:53:00;;;;;;;3.37;1.33;;;;;;;9.65;100.00;100253.50;4953097;28;20228;-75
2023/02/22 08:55:29;;;;;;;25.37;17.00;;;;;;;9.62;100.00;100251.41;4952759;28;20183;-73
2023/02/22 08:57:54;;;;;;;0.37;0.37;;;;;;;9.71;100.00;100250.38;4952987;28;20211;-77
2023/02/22 09:00:24;;;;;;;0.00;0.00;;;;;;;9.73;100.00;100242.66;4952717;28;20249;-75
2023/02/22 09:02:50;;;;;;;0.83;0.83;;;;;;;9.87;100.00;100248.06;4952959;28;20534;-75
2023/02/22 09:05:15;;;;;;;5.93;4.90;;;;;;;9.94;100.00;100251.13;4952471;29;20524;-76
2023/02/22 09:07:42;;;;;;;1.07;1.07;;;;;;;10.00;100.00;100240.91;4952740;28;20171;-75
2023/02/22 09:10:11;;;;;;;0.40;0.40;;;;;;;10.00;100.00;100240.91;4952821;28;20178;-74
2023/02/22 09:12:36;;;;;;;1.70;1.60;;;;;;;10.08;100.00;100243.69;4952652;28;20639;-74
2023/02/22 09:15:02;;;;;;;1.70;1.60;;;;;;;10.12;100.00;100239.19;4952518;28;20179;-75
2023/02/22 09:17:27;;;;;;;0.33;0.33;;;;;;;10.18;100.00;100241.81;4952685;28;20257;-75
2023/02/22 09:19:53;;;;;;;0.80;0.80;;;;;;;10.25;100.00;100229.34;4952732;28;20225;-76
2023/02/22 09:22:18;;;;;;;0.00;0.00;;;;;;;10.25;100.00;100234.00;4952378;28;20206;-76
2023/02/22 09:24:44;;;;;;;1.23;1.13;;;;;;;10.24;100.00;100237.84;4952404;28;20179;-76
2023/02/22 09:27:11;;;;;;;0.00;0.00;;;;;;;10.26;100.00;100232.88;4952694;28;20167;-76
2023/02/22 09:29:36;;;;;;;1.50;1.40;;;;;;;10.30;100.00;100240.13;4952536;28;20186;-76
2023/02/22 09:32:03;;;;;;;0.77;0.77;;;;;;;10.29;100.00;100232.25;4952433;28;20179;-75
2023/02/22 09:34:28;;;;;;;2.63;2.43;;;;;;;10.32;100.00;100231.63;4952114;28;20217;-76
2023/02/22 09:36:56;;;;;;;2.97;2.67;;;;;;;10.33;100.00;100235.97;4952375;28;20646;-76
2023/02/22 09:39:22;;;;;;;0.73;0.43;;;;;;;10.27;100.00;100229.84;4951376;29;20192;-76
2023/02/22 09:41:55;;;;;;;0.87;0.50;;;;;;;10.34;100.00;100234.84;4952203;28;20206;-74
2023/02/22 09:44:31;;;;;;;2.70;2.53;;;;;;;10.37;100.00;100234.22;4952466;28;20179;-75
2023/02/22 09:47:01;;;;;;;3.27;3.07;;;;;;;10.34;100.00;100229.38;4952361;28;20388;-76
2023/02/22 09:49:38;;;;;;;0.47;0.47;;;;;;;10.37;100.00;100229.56;4952233;28;20179;-75
2023/02/22 09:52:15;;;;;;;0.00;0.00;;;;;;;10.41;100.00;100233.28;4952288;28;20276;-76
2023/02/22 09:54:50;;;;;;;0.50;0.50;;;;;;;10.54;100.00;100231.53;4952083;28;20225;-76
2023/02/22 09:57:22;;;;;;;1.83;1.70;;;;;;;10.59;100.00;100225.97;4952171;28;20185;-74
2023/02/22 10:00:15;;;;;;;0.93;0.93;;;;;;;10.66;100.00;100231.75;4952152;29;20174;-75
2023/02/22 10:02:58;;;;;;;0.00;0.00;;;;;;;10.67;100.00;100221.63;4952528;28;20243;-76
2023/02/22 10:05:32;;;;;;;0.57;0.53;;;;;;;10.60;99.83;100227.56;4951946;28;20201;-76
2023/02/22 10:08:04;;;;;;;0.67;0.67;;;;;;;10.67;99.29;100219.69;4952198;28;20814;-76
2023/02/22 10:10:33;;;;;;;0.57;0.57;;;;;;;10.71;99.96;100217.97;4952001;28;20183;-76
2023/02/22 10:13:08;;;;;;;0.47;0.47;;;;;;;10.85;99.50;100214.25;4953188;28;20170;-75
2023/02/22 10:15:46;;;;;;;0.00;0.00;;;;;;;10.96;99.49;100212.84;4955779;28;20230;-78
2023/02/22 10:18:23;;;;;;;0.37;0.37;;;;;;;10.75;99.23;100207.19;4954605;29;20179;-75
2023/02/22 10:21:16;;;;;;;0.10;0.10;;;;;;;10.79;99.48;100208.16;4955554;28;20229;-74
2023/02/22 10:24:04;;;;;;;0.00;0.00;;;;;;;10.89;99.81;100209.78;4955794;28;20179;-76
2023/02/22 10:26:36;;;;;;;1.30;0.97;;;;;;;10.79;99.28;100208.16;4955569;28;20205;-75
2023/02/22 10:29:13;;;;;;;0.10;0.10;;;;;;;10.93;99.08;100199.81;4955649;28;20635;-75
2023/02/22 10:31:45;;;;;;;0.00;0.00;;;;;;;10.99;99.73;100199.38;4955749;28;20179;-76
2023/02/22 10:34:39;;;;;;;0.23;0.17;;;;;;;11.10;98.10;100199.03;4955491;28;20227;-74
2023/02/22 10:37:22;;;;;;;0.20;0.20;;;;;;;10.97;97.60;100198.06;4955473;28;20190;-75
2023/02/22 10:39:51;;;;;;;1.17;1.07;;;;;;;11.19;97.90;100195.19;4955553;28;20175;-75
2023/02/22 10:42:21;;;;;;;0.00;0.00;;;;;;;11.27;97.55;100191.63;4955334;28;20730;-76
2023/02/22 10:44:46;;;;;;;1.33;1.27;;;;;;;11.29;96.70;100189.41;4955222;28;20182;-74
2023/02/22 10:47:14;;;;;;;0.93;0.93;;;;;;;11.37;96.35;100186.97;4955263;28;20183;-75
2023/02/22 10:49:52;;;;;;;0.20;0.20;;;;;;;11.24;95.81;100184.06;4955409;28;20451;-76
2023/02/22 10:52:28;;;;;;;0.87;0.67;;;;;;;11.16;95.72;100181.34;4955219;28;20179;-74
2023/02/22 10:54:57;;;;;;;1.10;1.10;;;;;;;11.42;95.59;100170.38;4955008;28;20278;-72
2023/02/22 10:57:32;;;;;;;0.00;0.00;;;;;;;11.41;95.19;100169.56;4955183;28;20175;-75
2023/02/22 11:00:25;;;;;;;0.40;0.40;;;;;;;11.44;95.30;100165.41;4955207;28;20245;-74
2023/02/22 11:03:01;;;;;;;0.33;0.30;;;;;;;11.52;94.14;100170.84;4955035;28;20178;-74
2023/02/22 11:05:36;;;;;;;5.10;1.63;;;;;;;11.66;94.39;100170.69;4954846;28;20562;-75
2023/02/22 11:08:19;;;;;;;0.00;0.00;;;;;;;11.67;93.13;100175.00;4955117;28;20186;-74
2023/02/22 11:10:56;;;;;;;0.40;0.40;;;;;;;11.87;93.48;100162.63;4954839;28;20723;-76
2023/02/22 11:13:39;;;;;;;0.00;0.00;;;;;;;11.83;93.36;100161.66;4954897;28;20174;-74
2023/02/22 11:16:24;;;;;;;0.83;0.83;;;;;;;11.94;92.29;100160.16;4954693;28;20190;-74
2023/02/22 11:18:59;;;;;;;0.37;0.10;;;;;;;11.92;91.43;100146.00;4954774;28;20262;-75
2023/02/22 11:21:24;;;;;;;0.10;0.10;;;;;;;11.89;91.59;100157.63;4954836;28;20206;-75
2023/02/22 11:24:01;;;;;;;6.10;1.87;;;;;;;12.12;92.24;100150.75;4954048;28;20191;-75
2023/02/22 11:26:27;;;;;;;0.00;0.00;;;;;;;12.12;90.56;100148.00;4954189;28;20245;-75
2023/02/22 11:28:55;;;;;;;0.87;0.63;;;;;;;12.17;89.39;100141.56;4954663;28;20640;-71
2023/02/22 11:31:26;;;;;;;0.00;0.00;;;;;;;12.23;88.77;100144.91;4955097;28;20178;-71
2023/02/22 11:33:56;;;;;;;0.20;0.20;;;;;;;12.23;88.13;100131.22;4954723;28;20179;-73
2023/02/22 11:36:42;;;;;;;0.00;0.00;;;;;;;12.36;88.35;100133.72;4952993;28;20209;-72